Salem, Massachusetts
Current Conditions -  °F | °C
As of 7:53 PM on Friday 28 Nov 2014 (Local Time) from KBVY Reporting Station
Clear Clear  
Wind Chill: 18°   Ceiling: Unl
Heat Index: 26°   Visibility: 10mi
Dew Point: 15°   Wind: 7mph
Humidity: 63%   Direction: 300°WNW
Pressure: 30.16"   Gusts: NA
Location:  42.52°N, 70.89°W
Report Text: KBVY 290053Z AUTO 30006KT 10SM CLR M03/M09 A3016 RMK AO2 SLP211 T10331094
Loading
Personal Weather Stations






























Interactive Weather Map New forecast layout! Learn more

10-Day Weather Forecast

Advertisements
Track Severe Weather on mobile